Time;durP1;ratioP1;P1;durP2;ratioP2;P2;SDS_P1;SDS_P2;PMS_P1;PMS_P2;Temp;Humidity;BMP_temperature;BMP_pressure;BME280_temperature;BME280_humidity;BME280_pressure;Samples;Min_cycle;Max_cycle;Signal;HPM_P1;HPM_P2
2023/05/24 00:01:06;;;;;;;19.00;2.42;;;10.80;99.90;;;;;;5106842;28;20039;-59
2023/05/24 00:03:33;;;;;;;11.85;2.05;;;10.80;99.90;;;;;;5109507;28;20035;-60
2023/05/24 00:05:59;;;;;;;13.60;2.70;;;10.70;99.90;;;;;;5102325;28;20032;-61
2023/05/24 00:08:25;;;;;;;12.88;2.25;;;10.80;99.90;;;;;;5109655;28;20072;-60
2023/05/24 00:10:51;;;;;;;8.18;2.40;;;10.80;99.90;;;;;;5106147;28;20032;-61
2023/05/24 00:13:17;;;;;;;16.88;3.10;;;10.70;99.90;;;;;;5107707;28;20057;-60
2023/05/24 00:15:42;;;;;;;10.60;3.78;;;10.70;99.90;;;;;;5107826;28;20043;-61
2023/05/24 00:18:08;;;;;;;13.23;2.63;;;10.60;99.90;;;;;;5110312;28;20114;-59
2023/05/24 00:20:33;;;;;;;16.88;2.47;;;10.60;99.90;;;;;;5106485;28;20039;-61
2023/05/24 00:22:59;;;;;;;12.25;2.08;;;10.60;99.90;;;;;;5108355;28;20027;-60
2023/05/24 00:25:25;;;;;;;15.93;3.65;;;10.50;99.90;;;;;;5101062;28;20102;-59
2023/05/24 00:27:50;;;;;;;10.80;2.42;;;10.40;99.90;;;;;;5110239;28;20066;-61
2023/05/24 00:30:16;;;;;;;11.95;2.53;;;10.40;99.90;;;;;;5104504;28;20079;-61
2023/05/24 00:32:41;;;;;;;14.98;3.00;;;10.40;99.90;;;;;;5108865;28;20059;-58
2023/05/24 00:35:07;;;;;;;14.70;2.97;;;10.40;99.90;;;;;;5107608;28;20119;-61
2023/05/24 00:37:32;;;;;;;14.13;3.17;;;10.30;99.90;;;;;;5107237;28;20034;-59
2023/05/24 00:39:58;;;;;;;20.10;2.80;;;10.40;99.90;;;;;;5106504;28;20035;-57
2023/05/24 00:42:24;;;;;;;23.58;3.40;;;10.30;99.90;;;;;;5107679;28;20513;-61
2023/05/24 00:44:49;;;;;;;14.82;2.72;;;10.30;99.90;;;;;;5108863;28;20023;-61
2023/05/24 00:47:15;;;;;;;16.92;3.17;;;10.30;99.90;;;;;;5107571;28;20022;-60
2023/05/24 00:49:41;;;;;;;14.63;2.53;;;10.30;99.90;;;;;;5103040;28;20393;-60
2023/05/24 00:52:07;;;;;;;14.48;3.38;;;10.20;99.90;;;;;;5110203;28;20024;-60
2023/05/24 00:54:33;;;;;;;21.02;2.90;;;10.30;99.90;;;;;;5107420;28;20047;-60
2023/05/24 00:56:59;;;;;;;18.02;3.30;;;10.20;99.90;;;;;;5110311;28;20055;-60
2023/05/24 00:59:25;;;;;;;10.57;3.75;;;10.10;99.90;;;;;;5108052;27;20045;-60
2023/05/24 01:01:51;;;;;;;17.33;3.08;;;9.80;99.90;;;;;;5100348;28;20032;-61
2023/05/24 01:04:19;;;;;;;10.98;2.30;;;9.40;99.90;;;;;;5106597;28;20084;-60
2023/05/24 01:07:12;;;;;;;11.60;2.83;;;9.30;99.90;;;;;;5103109;28;20028;-60
2023/05/24 01:09:56;;;;;;;17.30;2.70;;;9.20;99.90;;;;;;5097522;28;20028;-60
2023/05/24 01:12:49;;;;;;;21.77;2.93;;;9.10;99.90;;;;;;5102852;28;20045;-60
2023/05/24 01:15:30;;;;;;;23.45;2.53;;;9.20;99.90;;;;;;5107047;28;20298;-61
2023/05/24 01:18:06;;;;;;;14.93;3.30;;;9.10;99.90;;;;;;5104564;28;20491;-60
2023/05/24 01:20:33;;;;;;;20.85;2.58;;;8.90;99.90;;;;;;5105105;28;20114;-60
2023/05/24 01:23:09;;;;;;;13.60;2.85;;;8.60;99.90;;;;;;5108633;28;20027;-59
2023/05/24 01:25:40;;;;;;;7.97;2.75;;;8.50;99.90;;;;;;5105654;28;20032;-60
2023/05/24 01:28:07;;;;;;;23.10;3.55;;;8.40;99.90;;;;;;5101375;28;20034;-61
2023/05/24 01:30:35;;;;;;;14.25;3.03;;;8.30;99.90;;;;;;5102001;28;20119;-61
2023/05/24 01:33:01;;;;;;;14.88;2.72;;;8.20;99.90;;;;;;5103631;28;20024;-60
2023/05/24 01:35:26;;;;;;;14.02;2.97;;;8.10;99.90;;;;;;5106651;28;20058;-60
2023/05/24 01:37:52;;;;;;;7.95;3.42;;;8.10;99.90;;;;;;5103195;28;20477;-61
2023/05/24 01:40:18;;;;;;;18.35;3.13;;;8.00;99.90;;;;;;5102691;28;20019;-60
2023/05/24 01:42:45;;;;;;;16.58;2.65;;;7.90;99.90;;;;;;5102136;28;20210;-59
2023/05/24 01:45:13;;;;;;;21.08;3.90;;;8.00;99.90;;;;;;5106371;28;20556;-61
2023/05/24 01:48:05;;;;;;;12.43;3.15;;;7.90;99.90;;;;;;5108264;28;20555;-61
2023/05/24 01:50:35;;;;;;;22.42;3.17;;;7.90;99.90;;;;;;5099897;28;20557;-60
2023/05/24 01:53:07;;;;;;;14.55;3.00;;;8.00;99.90;;;;;;5106129;28;20020;-61
2023/05/24 01:55:35;;;;;;;18.33;3.30;;;8.00;99.90;;;;;;5100564;28;20020;-60
2023/05/24 01:58:03;;;;;;;11.00;3.08;;;7.90;99.90;;;;;;5108471;28;20034;-60
2023/05/24 02:00:31;;;;;;;17.52;3.17;;;7.90;99.90;;;;;;5104533;28;20047;-60
2023/05/24 02:02:57;;;;;;;13.13;2.90;;;7.90;99.90;;;;;;5108619;28;20023;-60
2023/05/24 02:05:23;;;;;;;13.32;2.85;;;7.80;99.90;;;;;;5105498;28;20441;-58
2023/05/24 02:07:48;;;;;;;23.52;3.72;;;7.80;99.90;;;;;;5108025;28;20055;-60
2023/05/24 02:10:14;;;;;;;16.98;3.55;;;7.80;99.90;;;;;;5102043;28;20028;-61
2023/05/24 02:12:40;;;;;;;22.88;3.47;;;7.70;99.90;;;;;;5100118;28;20161;-59
2023/05/24 02:15:06;;;;;;;26.48;3.40;;;7.50;99.90;;;;;;5106443;28;20582;-60
2023/05/24 02:17:31;;;;;;;19.80;3.22;;;7.50;99.90;;;;;;5107222;28;20335;-61
2023/05/24 02:19:58;;;;;;;10.55;2.90;;;7.40;99.90;;;;;;5106492;28;20027;-60
2023/05/24 02:22:25;;;;;;;11.70;3.05;;;7.40;99.90;;;;;;5100273;28;20062;-61
2023/05/24 02:24:50;;;;;;;20.08;3.80;;;7.30;99.90;;;;;;5106582;28;20039;-60
2023/05/24 02:27:16;;;;;;;13.57;2.88;;;7.30;99.90;;;;;;5102219;28;20032;-60
2023/05/24 02:29:41;;;;;;;25.55;3.50;;;7.30;99.90;;;;;;5105592;28;20089;-60
2023/05/24 02:32:07;;;;;;;20.58;3.35;;;7.30;99.90;;;;;;5101575;28;20027;-58
2023/05/24 02:34:33;;;;;;;18.92;3.05;;;7.30;99.90;;;;;;5106869;28;20091;-59
2023/05/24 02:36:58;;;;;;;18.23;3.30;;;7.30;99.90;;;;;;5100524;28;20023;-60
2023/05/24 02:39:24;;;;;;;24.33;4.35;;;7.30;99.90;;;;;;5105261;28;20028;-59
2023/05/24 02:41:49;;;;;;;14.00;3.20;;;7.30;99.90;;;;;;5107880;28;20111;-60
2023/05/24 02:44:15;;;;;;;15.35;3.20;;;7.30;99.90;;;;;;5108938;28;20024;-58
2023/05/24 02:46:40;;;;;;;19.20;3.60;;;7.30;99.90;;;;;;5111585;28;20473;-59
2023/05/24 02:49:06;;;;;;;17.15;3.67;;;7.20;99.90;;;;;;5110613;28;20039;-54
2023/05/24 02:51:32;;;;;;;13.60;3.20;;;7.10;99.90;;;;;;5109908;28;20085;-58
2023/05/24 02:53:57;;;;;;;21.90;3.42;;;7.00;99.90;;;;;;5111466;27;20037;-60
2023/05/24 02:56:25;;;;;;;15.73;4.05;;;7.00;99.90;;;;;;5109242;28;20561;-60
2023/05/24 02:58:52;;;;;;;10.73;3.30;;;6.90;99.90;;;;;;5109733;28;20038;-59
2023/05/24 03:01:18;;;;;;;9.95;3.67;;;6.80;99.90;;;;;;5106311;28;20055;-60
2023/05/24 03:03:44;;;;;;;11.20;2.88;;;6.90;99.90;;;;;;5112132;28;20054;-60
2023/05/24 03:06:12;;;;;;;17.73;3.67;;;6.80;99.90;;;;;;5109420;28;20061;-59
2023/05/24 03:08:41;;;;;;;22.05;4.45;;;6.80;99.90;;;;;;5110567;28;20039;-60
2023/05/24 03:11:07;;;;;;;18.73;3.60;;;6.80;99.90;;;;;;5109088;28;20444;-58
2023/05/24 03:13:32;;;;;;;24.98;3.13;;;6.80;99.90;;;;;;5108500;28;20036;-59
2023/05/24 03:15:58;;;;;;;24.08;3.85;;;6.70;99.90;;;;;;5106503;28;20503;-59
2023/05/24 03:18:23;;;;;;;20.60;4.38;;;6.60;99.90;;;;;;5109687;28;20035;-58
2023/05/24 03:20:49;;;;;;;13.85;3.15;;;6.70;99.90;;;;;;5106714;28;20076;-60
2023/05/24 03:23:15;;;;;;;15.05;4.15;;;6.70;99.90;;;;;;5109636;28;20026;-58
2023/05/24 03:25:41;;;;;;;19.95;4.10;;;6.70;99.90;;;;;;5103959;28;20028;-61
2023/05/24 03:28:06;;;;;;;17.23;3.67;;;6.70;99.90;;;;;;5109715;27;20023;-58
2023/05/24 03:30:32;;;;;;;16.52;4.15;;;6.70;99.90;;;;;;5104936;28;20393;-59
2023/05/24 03:32:58;;;;;;;17.20;4.28;;;6.70;99.90;;;;;;5106149;28;20036;-59
2023/05/24 03:35:23;;;;;;;17.35;4.60;;;6.70;99.90;;;;;;5106752;28;20026;-56
2023/05/24 03:37:49;;;;;;;21.38;4.30;;;6.70;99.90;;;;;;5106709;28;20361;-59
2023/05/24 03:40:16;;;;;;;15.27;3.75;;;6.70;99.90;;;;;;5106552;28;20721;-58
2023/05/24 03:42:41;;;;;;;17.13;4.32;;;6.80;99.90;;;;;;5107669;28;20145;-59
2023/05/24 03:45:07;;;;;;;19.23;5.03;;;6.80;99.90;;;;;;5108181;28;20034;-57
2023/05/24 03:47:33;;;;;;;14.38;4.07;;;6.70;99.90;;;;;;5110438;28;20094;-59
2023/05/24 03:49:59;;;;;;;26.40;4.22;;;6.80;99.90;;;;;;5106476;28;20060;-59
2023/05/24 03:52:24;;;;;;;11.93;3.72;;;6.70;99.90;;;;;;5106738;28;20426;-57
2023/05/24 03:54:50;;;;;;;18.60;4.13;;;6.80;99.90;;;;;;5111344;28;20094;-58
2023/05/24 03:57:16;;;;;;;17.13;4.38;;;6.80;99.90;;;;;;5110584;28;20115;-58
2023/05/24 03:59:42;;;;;;;18.08;5.20;;;6.80;99.90;;;;;;5110905;28;20483;-59
2023/05/24 04:02:08;;;;;;;17.15;4.13;;;6.90;99.90;;;;;;5107693;28;20027;-59
2023/05/24 04:04:33;;;;;;;24.02;4.03;;;7.00;99.90;;;;;;5111365;27;20031;-57
2023/05/24 04:06:59;;;;;;;19.67;4.55;;;7.10;99.90;;;;;;5111080;28;20382;-59
2023/05/24 04:09:24;;;;;;;20.45;4.45;;;7.20;99.90;;;;;;5107949;28;20024;-58
2023/05/24 04:11:50;;;;;;;18.55;3.97;;;7.30;99.90;;;;;;5106063;28;20051;-59
2023/05/24 04:14:16;;;;;;;12.30;4.40;;;7.30;99.90;;;;;;5106477;28;20096;-59
2023/05/24 04:16:43;;;;;;;14.73;4.15;;;7.40;99.90;;;;;;5105362;28;20503;-57
2023/05/24 04:19:09;;;;;;;12.13;4.63;;;7.40;99.90;;;;;;5105757;28;20023;-60
2023/05/24 04:21:36;;;;;;;18.55;4.00;;;7.40;99.90;;;;;;5101437;27;20068;-57
2023/05/24 04:24:03;;;;;;;13.10;4.57;;;7.50;99.90;;;;;;5104977;28;20073;-57
2023/05/24 04:26:29;;;;;;;20.75;4.18;;;7.50;99.90;;;;;;5108334;28;20055;-58
2023/05/24 04:28:55;;;;;;;16.42;5.40;;;7.50;99.90;;;;;;5110851;28;20431;-59
2023/05/24 04:31:21;;;;;;;23.63;4.40;;;7.60;99.90;;;;;;5110345;27;20106;-59
2023/05/24 04:33:48;;;;;;;9.45;3.50;;;7.60;99.90;;;;;;5107127;28;20110;-55
2023/05/24 04:36:14;;;;;;;23.63;4.60;;;7.60;99.90;;;;;;5107078;28;20023;-59
2023/05/24 04:38:40;;;;;;;11.85;3.83;;;7.70;99.90;;;;;;5102073;28;20461;-56
2023/05/24 04:41:06;;;;;;;32.08;5.32;;;7.70;99.90;;;;;;5102568;28;20119;-59
2023/05/24 04:43:35;;;;;;;17.52;4.25;;;7.80;99.90;;;;;;5104029;28;20111;-58
2023/05/24 04:46:01;;;;;;;19.08;3.90;;;7.80;99.90;;;;;;5107541;28;20046;-57
2023/05/24 04:48:27;;;;;;;17.95;3.72;;;7.90;99.90;;;;;;5106790;28;20032;-58
2023/05/24 04:50:54;;;;;;;18.40;4.38;;;7.90;99.90;;;;;;5106518;28;20020;-60
2023/05/24 04:53:20;;;;;;;17.23;4.60;;;7.90;99.90;;;;;;5102837;28;20027;-60
2023/05/24 04:55:47;;;;;;;19.67;4.82;;;8.00;99.90;;;;;;5106653;28;20355;-58
2023/05/24 04:58:13;;;;;;;11.27;4.03;;;8.00;99.90;;;;;;5106811;28;20055;-58
2023/05/24 05:00:38;;;;;;;21.15;4.40;;;8.10;99.90;;;;;;5097754;28;20498;-57
2023/05/24 05:03:04;;;;;;;19.77;4.22;;;8.10;99.90;;;;;;5105796;28;20027;-57
2023/05/24 05:05:30;;;;;;;23.88;5.35;;;8.20;99.90;;;;;;5103040;28;20076;-59
2023/05/24 05:07:56;;;;;;;15.93;4.70;;;8.20;99.90;;;;;;5107560;28;20031;-60
2023/05/24 05:10:21;;;;;;;20.60;5.15;;;8.20;99.90;;;;;;5101766;28;20031;-57
2023/05/24 05:12:47;;;;;;;21.98;4.60;;;8.30;99.90;;;;;;5101489;28;20032;-61
2023/05/24 05:15:13;;;;;;;17.10;4.25;;;8.40;99.90;;;;;;5105118;28;20057;-54
2023/05/24 05:17:39;;;;;;;14.15;4.90;;;8.50;99.90;;;;;;5106702;28;20054;-60
2023/05/24 05:20:05;;;;;;;35.22;5.78;;;8.50;99.90;;;;;;5106234;28;20028;-61
2023/05/24 05:22:31;;;;;;;24.63;4.97;;;8.50;99.90;;;;;;5107398;28;20031;-61
2023/05/24 05:24:56;;;;;;;30.75;5.72;;;8.60;99.90;;;;;;5104109;28;20031;-61
2023/05/24 05:27:22;;;;;;;21.70;5.07;;;8.70;99.90;;;;;;5107449;28;20067;-61
2023/05/24 05:29:47;;;;;;;28.50;4.88;;;8.70;99.90;;;;;;5106718;28;20107;-60
2023/05/24 05:32:13;;;;;;;21.80;5.10;;;8.80;99.90;;;;;;5105781;27;20023;-62
2023/05/24 05:34:39;;;;;;;23.80;5.43;;;8.90;99.90;;;;;;5105508;28;20043;-61
2023/05/24 05:37:04;;;;;;;30.65;5.55;;;8.90;99.90;;;;;;5104215;28;20035;-60
2023/05/24 05:39:30;;;;;;;19.45;5.20;;;9.00;99.90;;;;;;5104790;28;20028;-58
2023/05/24 05:41:56;;;;;;;28.63;5.32;;;9.10;99.90;;;;;;5108422;28;20020;-63
2023/05/24 05:44:22;;;;;;;21.05;4.53;;;9.10;99.90;;;;;;5105995;28;20031;-62
2023/05/24 05:46:48;;;;;;;28.77;5.70;;;9.20;99.90;;;;;;5104586;28;20081;-61
2023/05/24 05:49:14;;;;;;;22.10;5.30;;;9.20;99.90;;;;;;5109706;28;20089;-61
2023/05/24 05:51:40;;;;;;;35.95;5.47;;;9.30;99.90;;;;;;5107526;28;20482;-62
2023/05/24 05:54:13;;;;;;;27.95;5.75;;;9.40;99.90;;;;;;5108600;28;20085;-61
2023/05/24 05:56:44;;;;;;;25.90;5.60;;;9.50;99.90;;;;;;5104044;28;20031;-62
2023/05/24 05:59:14;;;;;;;29.10;5.45;;;9.50;99.90;;;;;;5105442;28;20027;-60
2023/05/24 06:01:40;;;;;;;33.80;5.55;;;9.50;99.90;;;;;;5108792;28;20038;-61
2023/05/24 06:04:06;;;;;;;27.77;5.00;;;9.60;99.90;;;;;;5109049;28;20020;-59
2023/05/24 06:06:32;;;;;;;30.27;4.85;;;9.60;99.90;;;;;;5102028;28;20035;-61
2023/05/24 06:08:58;;;;;;;39.35;6.13;;;9.60;99.90;;;;;;5107487;28;20106;-59
2023/05/24 06:11:23;;;;;;;27.38;5.65;;;9.70;99.90;;;;;;5109654;28;20095;-60
2023/05/24 06:13:49;;;;;;;25.88;5.55;;;9.80;99.90;;;;;;5104564;28;20035;-60
2023/05/24 06:16:14;;;;;;;36.40;5.38;;;9.90;99.90;;;;;;5107873;28;20565;-60
2023/05/24 06:18:41;;;;;;;28.13;5.35;;;10.00;99.90;;;;;;5113292;28;20101;-61
2023/05/24 06:21:09;;;;;;;32.78;5.97;;;10.10;99.90;;;;;;5112182;28;20027;-61
2023/05/24 06:23:38;;;;;;;36.83;5.93;;;10.20;99.90;;;;;;5114035;28;20558;-60
2023/05/24 06:26:03;;;;;;;33.40;5.03;;;10.30;99.90;;;;;;5112349;28;20088;-59
2023/05/24 06:28:29;;;;;;;31.77;6.60;;;10.20;99.90;;;;;;5113586;28;20029;-60
2023/05/24 06:30:54;;;;;;;28.48;6.07;;;10.30;99.90;;;;;;5114022;28;20035;-59
2023/05/24 06:33:21;;;;;;;30.20;5.22;;;10.40;99.90;;;;;;5113030;28;20016;-61
2023/05/24 06:35:47;;;;;;;27.20;5.88;;;10.50;99.90;;;;;;5112279;28;20020;-61
2023/05/24 06:38:12;;;;;;;34.60;5.45;;;10.50;99.90;;;;;;5113381;28;20505;-61
2023/05/24 06:40:38;;;;;;;30.40;5.95;;;10.50;99.90;;;;;;5113818;28;20481;-61
2023/05/24 06:43:04;;;;;;;23.60;5.38;;;10.60;99.90;;;;;;5110395;28;20032;-61
2023/05/24 06:45:30;;;;;;;31.35;5.00;;;10.70;99.90;;;;;;5113310;28;20350;-60
2023/05/24 06:47:55;;;;;;;29.20;5.95;;;10.80;99.90;;;;;;5113699;28;20107;-61
2023/05/24 06:50:21;;;;;;;37.17;5.28;;;10.70;99.90;;;;;;5111620;28;20055;-61
2023/05/24 06:52:47;;;;;;;22.63;5.22;;;10.70;99.90;;;;;;5112039;28;20020;-56
2023/05/24 06:55:13;;;;;;;25.50;4.07;;;10.70;99.90;;;;;;5113590;28;20439;-56
2023/05/24 06:57:38;;;;;;;27.85;4.95;;;10.80;99.90;;;;;;5113352;28;20026;-56
2023/05/24 07:00:11;;;;;;;30.25;5.22;;;11.00;99.90;;;;;;5110372;28;20392;-53
2023/05/24 07:02:37;;;;;;;23.67;4.85;;;11.10;99.90;;;;;;5111308;28;20071;-56
2023/05/24 07:05:03;;;;;;;29.27;5.07;;;11.20;99.90;;;;;;5107995;28;20099;-54
2023/05/24 07:07:28;;;;;;;34.83;5.35;;;11.20;99.90;;;;;;5113024;28;20028;-54
2023/05/24 07:09:54;;;;;;;24.30;4.50;;;11.20;99.90;;;;;;5112233;28;20019;-52
2023/05/24 07:12:20;;;;;;;30.08;5.72;;;11.40;99.90;;;;;;5112228;28;20099;-56
2023/05/24 07:14:46;;;;;;;22.30;4.75;;;11.40;99.90;;;;;;5112957;28;20019;-56
2023/05/24 07:17:11;;;;;;;31.77;6.28;;;11.50;99.90;;;;;;5111718;28;20015;-55
2023/05/24 07:19:37;;;;;;;27.58;5.18;;;11.50;99.90;;;;;;5112562;27;20027;-59
2023/05/24 07:22:03;;;;;;;27.83;4.78;;;11.50;99.90;;;;;;5111557;28;20090;-58
2023/05/24 07:24:28;;;;;;;23.80;3.85;;;11.40;99.90;;;;;;5110240;28;20066;-55
2023/05/24 07:26:56;;;;;;;25.15;4.20;;;11.30;99.90;;;;;;5106609;28;20473;-56
2023/05/24 07:29:22;;;;;;;22.83;4.75;;;11.40;99.90;;;;;;5106282;28;20550;-57
2023/05/24 07:31:47;;;;;;;23.88;3.67;;;11.50;99.90;;;;;;5107452;28;20040;-58
2023/05/24 07:34:13;;;;;;;30.77;5.93;;;11.70;99.90;;;;;;5109574;28;20028;-57
2023/05/24 07:36:39;;;;;;;16.15;3.80;;;11.90;99.90;;;;;;5110099;28;20111;-58
2023/05/24 07:39:08;;;;;;;22.88;4.38;;;12.00;99.90;;;;;;5111133;28;20599;-58
2023/05/24 07:41:35;;;;;;;23.05;4.13;;;12.10;99.90;;;;;;5110848;28;20541;-57
2023/05/24 07:44:00;;;;;;;28.23;4.57;;;12.10;99.90;;;;;;5110757;28;20050;-56
2023/05/24 07:46:26;;;;;;;19.70;3.85;;;12.20;99.90;;;;;;5106927;28;20529;-58
2023/05/24 07:48:52;;;;;;;19.25;3.80;;;12.40;99.90;;;;;;5110024;28;20042;-55
2023/05/24 07:51:17;;;;;;;23.13;3.67;;;12.60;99.90;;;;;;5106406;28;20031;-58
2023/05/24 07:53:43;;;;;;;16.45;3.80;;;12.70;99.90;;;;;;5107841;28;20735;-58
2023/05/24 07:56:08;;;;;;;20.92;3.30;;;12.80;99.90;;;;;;5108880;28;20034;-55
2023/05/24 07:58:34;;;;;;;17.60;3.40;;;12.90;99.90;;;;;;5110746;28;20016;-58
2023/05/24 08:01:00;;;;;;;25.45;4.40;;;12.90;99.90;;;;;;5104258;28;20027;-59
2023/05/24 08:03:26;;;;;;;17.70;3.55;;;13.00;99.90;;;;;;5107614;28;20035;-58
2023/05/24 08:05:52;;;;;;;24.25;3.78;;;13.00;99.90;;;;;;5103602;28;20050;-58
2023/05/24 08:08:18;;;;;;;19.92;3.95;;;13.10;99.90;;;;;;5111846;28;20485;-55
2023/05/24 08:10:43;;;;;;;26.90;4.28;;;13.10;99.90;;;;;;5110503;28;20028;-59
2023/05/24 08:13:09;;;;;;;19.50;3.95;;;12.90;99.90;;;;;;5109137;28;20115;-57
2023/05/24 08:15:34;;;;;;;26.38;4.75;;;12.60;99.90;;;;;;5106902;28;20080;-58
2023/05/24 08:18:00;;;;;;;19.83;4.20;;;12.60;99.90;;;;;;5108153;28;20062;-58
2023/05/24 08:20:26;;;;;;;26.90;5.65;;;12.50;99.90;;;;;;5106841;28;20019;-56
2023/05/24 08:22:51;;;;;;;31.15;4.30;;;12.50;99.90;;;;;;5107507;28;20089;-59
2023/05/24 08:25:17;;;;;;;20.83;4.85;;;12.50;99.90;;;;;;5107195;28;20020;-58
2023/05/24 08:27:43;;;;;;;20.13;4.85;;;12.60;99.90;;;;;;5102991;28;20493;-57
2023/05/24 08:30:09;;;;;;;24.00;4.60;;;12.60;99.90;;;;;;5108677;28;20031;-56
2023/05/24 08:32:35;;;;;;;29.42;5.10;;;12.70;99.90;;;;;;5108870;28;20038;-56
2023/05/24 08:35:00;;;;;;;30.55;5.13;;;12.70;99.90;;;;;;5110723;28;20477;-58
2023/05/24 08:37:27;;;;;;;19.70;5.78;;;12.60;99.90;;;;;;5106419;28;20477;-59
2023/05/24 08:39:52;;;;;;;28.85;7.13;;;12.50;99.90;;;;;;5109604;28;20019;-59
2023/05/24 08:42:20;;;;;;;40.92;6.85;;;12.40;99.90;;;;;;5110135;28;20401;-60
2023/05/24 08:45:02;;;;;;;31.23;7.32;;;12.40;99.90;;;;;;5111021;28;20164;-60
2023/05/24 08:47:29;;;;;;;28.73;7.55;;;12.40;99.90;;;;;;5109291;28;20549;-59
2023/05/24 08:49:56;;;;;;;25.55;6.88;;;12.60;99.90;;;;;;5109870;28;20024;-60
2023/05/24 08:52:22;;;;;;;29.15;7.53;;;12.70;99.90;;;;;;5105637;28;20422;-58
2023/05/24 08:54:48;;;;;;;28.95;6.57;;;12.80;99.90;;;;;;5111176;28;20023;-59
2023/05/24 08:57:15;;;;;;;27.65;6.05;;;12.90;99.90;;;;;;5108423;28;20019;-58
2023/05/24 08:59:41;;;;;;;34.78;5.45;;;12.90;99.90;;;;;;5104986;28;20137;-57
2023/05/24 09:02:11;;;;;;;19.05;5.40;;;12.80;99.90;;;;;;5107544;28;20131;-57
2023/05/24 09:04:38;;;;;;;25.92;5.22;;;13.00;99.90;;;;;;5108689;28;20497;-58
2023/05/24 09:07:06;;;;;;;29.40;6.75;;;13.10;99.90;;;;;;5108693;28;20025;-59
2023/05/24 09:09:33;;;;;;;18.98;6.38;;;13.20;99.90;;;;;;5107212;28;20550;-56
2023/05/24 09:12:03;;;;;;;23.10;6.97;;;13.40;99.90;;;;;;5106017;28;20028;-58
2023/05/24 09:14:29;;;;;;;27.60;6.25;;;13.40;99.90;;;;;;5107261;28;20024;-59
2023/05/24 09:16:55;;;;;;;27.55;7.05;;;13.50;99.90;;;;;;5105301;28;20033;-59
2023/05/24 09:19:20;;;;;;;38.55;7.97;;;13.50;99.90;;;;;;5105015;28;20020;-58
2023/05/24 09:21:48;;;;;;;29.15;7.00;;;13.50;99.90;;;;;;5107248;28;20040;-59
2023/05/24 09:24:14;;;;;;;20.73;6.97;;;13.40;99.90;;;;;;5104377;28;20103;-55
2023/05/24 09:26:41;;;;;;;25.80;7.50;;;13.30;99.90;;;;;;5105482;28;20106;-59
2023/05/24 09:29:08;;;;;;;32.13;9.13;;;13.30;99.90;;;;;;5107895;28;20027;-59
2023/05/24 09:31:34;;;;;;;28.50;8.45;;;13.30;99.90;;;;;;5106403;28;20038;-59
2023/05/24 09:34:00;;;;;;;31.90;8.77;;;13.20;99.90;;;;;;5103551;28;20019;-57
2023/05/24 09:36:29;;;;;;;34.67;9.60;;;13.10;99.90;;;;;;5104830;28;20068;-59
2023/05/24 09:39:07;;;;;;;29.08;9.75;;;13.10;99.90;;;;;;5107596;28;20440;-58
2023/05/24 09:41:32;;;;;;;25.95;9.35;;;13.10;99.90;;;;;;5105877;28;20039;-58
2023/05/24 09:43:58;;;;;;;28.95;10.77;;;13.30;99.90;;;;;;5105200;28;20370;-59
2023/05/24 09:46:24;;;;;;;21.65;8.52;;;13.60;99.90;;;;;;5107520;27;20461;-60
2023/05/24 09:49:02;;;;;;;32.00;9.80;;;14.00;99.90;;;;;;5102368;28;20028;-58
2023/05/24 09:51:28;;;;;;;31.88;10.25;;;14.30;99.90;;;;;;5105270;28;20035;-60
2023/05/24 09:53:59;;;;;;;26.00;10.13;;;14.40;99.90;;;;;;5104803;28;20027;-60
2023/05/24 09:56:25;;;;;;;27.70;10.95;;;14.40;99.90;;;;;;5102075;28;20081;-57
2023/05/24 09:58:52;;;;;;;28.35;11.18;;;14.40;99.90;;;;;;5103494;28;20446;-60
2023/05/24 10:01:23;;;;;;;31.40;12.27;;;14.30;99.90;;;;;;5103532;28;20023;-59
2023/05/24 10:03:56;;;;;;;38.33;13.48;;;14.20;99.90;;;;;;5105757;28;20377;-59
2023/05/24 10:06:22;;;;;;;32.03;13.10;;;13.80;99.90;;;;;;5102321;28;20112;-57
2023/05/24 10:08:49;;;;;;;40.33;16.25;;;13.90;99.90;;;;;;5106181;28;20493;-60
2023/05/24 10:11:15;;;;;;;38.10;14.73;;;13.90;99.90;;;;;;5103769;28;20436;-59
2023/05/24 10:13:41;;;;;;;35.38;15.27;;;13.90;99.90;;;;;;5098021;28;20142;-60
2023/05/24 10:16:07;;;;;;;39.30;15.68;;;13.80;99.90;;;;;;5101424;28;20102;-60
2023/05/24 10:18:33;;;;;;;31.98;15.05;;;13.80;99.90;;;;;;5103575;28;20023;-58
2023/05/24 10:21:00;;;;;;;38.45;14.85;;;13.80;99.90;;;;;;5099852;28;20042;-59
2023/05/24 10:23:29;;;;;;;32.17;14.43;;;13.80;99.90;;;;;;5104476;28;20039;-59
2023/05/24 10:26:09;;;;;;;34.60;14.02;;;14.00;99.90;;;;;;5106815;28;20092;-59
2023/05/24 10:28:41;;;;;;;33.85;13.90;;;14.20;99.90;;;;;;5101000;28;20039;-60
2023/05/24 10:31:11;;;;;;;38.45;14.20;;;14.40;99.90;;;;;;5104066;28;20035;-59
2023/05/24 10:33:39;;;;;;;28.80;12.88;;;14.40;99.90;;;;;;5103052;28;20020;-58
2023/05/24 10:36:06;;;;;;;39.67;13.63;;;14.20;99.90;;;;;;5100204;28;20028;-58
2023/05/24 10:38:32;;;;;;;31.90;12.60;;;13.90;99.90;;;;;;5096531;28;20122;-62
2023/05/24 10:40:58;;;;;;;34.70;12.18;;;13.70;99.90;;;;;;5103363;28;20122;-60
2023/05/24 10:43:25;;;;;;;36.78;12.07;;;13.70;99.90;;;;;;5099425;28;20487;-59
2023/05/24 10:45:50;;;;;;;26.08;11.93;;;13.60;99.90;;;;;;5102778;28;20424;-60
2023/05/24 10:48:16;;;;;;;25.50;11.77;;;13.60;99.90;;;;;;5101955;28;20031;-59
2023/05/24 10:50:42;;;;;;;33.88;11.93;;;13.70;99.90;;;;;;5103490;28;20460;-58
2023/05/24 10:53:13;;;;;;;34.47;11.73;;;13.70;99.90;;;;;;5103812;28;20030;-58
2023/05/24 10:55:51;;;;;;;38.20;11.70;;;13.70;99.90;;;;;;5103414;28;20388;-60
2023/05/24 10:58:18;;;;;;;36.95;12.25;;;13.80;99.90;;;;;;5098920;28;20051;-60
2023/05/24 11:00:44;;;;;;;37.53;12.00;;;13.90;99.90;;;;;;5099640;28;20042;-61
2023/05/24 11:03:11;;;;;;;27.48;11.48;;;14.00;99.90;;;;;;5101181;28;20023;-58
2023/05/24 11:05:46;;;;;;;30.40;11.07;;;14.30;99.90;;;;;;5103392;28;20110;-60
2023/05/24 11:08:12;;;;;;;32.70;11.88;;;14.60;99.90;;;;;;5108051;28;20115;-59
2023/05/24 11:10:38;;;;;;;22.83;11.38;;;14.70;99.90;;;;;;5105160;28;20114;-59
2023/05/24 11:13:06;;;;;;;32.03;12.65;;;14.70;99.90;;;;;;5101941;28;20024;-59
2023/05/24 11:15:32;;;;;;;27.88;10.15;;;14.80;99.90;;;;;;5100229;28;20027;-61
2023/05/24 11:18:13;;;;;;;26.08;9.27;;;14.70;99.90;;;;;;5107964;28;20094;-59
2023/05/24 11:20:41;;;;;;;18.08;10.35;;;14.70;99.90;;;;;;5102227;28;20063;-58
2023/05/24 11:23:10;;;;;;;25.83;9.32;;;14.70;99.90;;;;;;5103329;28;20181;-58
2023/05/24 11:25:37;;;;;;;20.23;9.82;;;14.80;99.90;;;;;;5105124;28;20038;-56
2023/05/24 11:28:08;;;;;;;28.30;9.55;;;14.90;99.90;;;;;;5105204;28;20020;-57
2023/05/24 11:30:41;;;;;;;25.67;9.75;;;15.00;99.90;;;;;;5103782;28;20039;-59
2023/05/24 11:33:18;;;;;;;25.67;9.13;;;15.40;99.90;;;;;;5102119;28;20397;-58
2023/05/24 11:35:45;;;;;;;26.50;8.70;;;15.40;99.90;;;;;;5107663;28;20079;-54
2023/05/24 11:38:15;;;;;;;22.48;9.40;;;15.50;99.90;;;;;;5104059;28;20068;-55
2023/05/24 11:40:45;;;;;;;20.15;9.60;;;15.70;99.90;;;;;;5105760;28;20042;-57
2023/05/24 11:43:16;;;;;;;16.83;7.75;;;15.80;99.90;;;;;;5107463;27;20031;-58
2023/05/24 11:45:44;;;;;;;21.58;8.13;;;15.90;99.90;;;;;;5107680;28;20038;-56
2023/05/24 11:48:11;;;;;;;22.35;7.85;;;15.80;99.90;;;;;;5105048;28;20122;-57
2023/05/24 11:50:44;;;;;;;21.05;7.15;;;15.90;99.90;;;;;;5104368;28;20134;-56
2023/05/24 11:53:19;;;;;;;25.17;7.70;;;15.70;99.90;;;;;;5098651;28;20024;-58
2023/05/24 11:55:45;;;;;;;15.75;6.70;;;15.50;99.90;;;;;;5108285;28;20023;-59
2023/05/24 11:58:28;;;;;;;20.17;7.75;;;15.40;99.90;;;;;;5104820;28;20114;-56
2023/05/24 12:00:53;;;;;;;19.88;7.80;;;15.40;99.90;;;;;;5105201;28;20044;-55
2023/05/24 12:03:20;;;;;;;26.10;7.47;;;15.20;99.90;;;;;;5105568;28;20108;-58
2023/05/24 12:05:46;;;;;;;25.52;8.40;;;15.20;99.90;;;;;;5102132;28;20396;-55
2023/05/24 12:08:14;;;;;;;22.20;8.05;;;15.00;99.90;;;;;;5107570;28;20103;-59
2023/05/24 12:10:40;;;;;;;28.60;7.93;;;14.80;99.90;;;;;;5104189;28;20376;-59
2023/05/24 12:13:17;;;;;;;32.17;7.82;;;14.70;99.90;;;;;;5100828;28;20053;-58
2023/05/24 12:15:43;;;;;;;19.63;8.00;;;14.70;99.90;;;;;;5107397;28;20028;-58
2023/05/24 12:18:25;;;;;;;22.52;7.93;;;14.60;99.90;;;;;;5104192;28;20023;-58
2023/05/24 12:20:51;;;;;;;17.85;7.45;;;14.60;99.90;;;;;;5105846;28;20352;-58
2023/05/24 12:23:22;;;;;;;21.17;6.38;;;14.60;99.90;;;;;;5104599;28;20515;-58
2023/05/24 12:25:49;;;;;;;24.02;6.00;;;14.60;99.90;;;;;;5106913;28;20042;-59
2023/05/24 12:28:15;;;;;;;17.73;6.60;;;14.60;99.90;;;;;;5108017;28;20110;-58
2023/05/24 12:30:43;;;;;;;23.77;6.43;;;14.50;99.90;;;;;;5107298;28;20073;-60
2023/05/24 12:33:09;;;;;;;25.35;6.90;;;14.50;99.90;;;;;;5105604;28;20103;-57
2023/05/24 12:35:35;;;;;;;24.02;5.90;;;14.50;99.90;;;;;;5104679;28;20029;-56
2023/05/24 12:38:00;;;;;;;21.92;6.32;;;14.50;99.90;;;;;;5102385;28;20397;-54
2023/05/24 12:40:26;;;;;;;27.58;6.22;;;14.60;99.90;;;;;;5103579;28;20038;-55